sensor_id;sensor_type;location;lat;lon;timestamp;pressure;altitude;pressure_sealevel;temperature;humidity
46722;BME280;32455;43.430;23.136;2023-05-29T00:00:01;98052.09;;;15.41;100.00
46722;BME280;32455;43.430;23.136;2023-05-29T00:02:48;98045.56;;;15.37;100.00
46722;BME280;32455;43.430;23.136;2023-05-29T00:05:34;98053.44;;;15.39;100.00
46722;BME280;32455;43.430;23.136;2023-05-29T00:08:20;98052.88;;;15.37;100.00
46722;BME280;32455;43.430;23.136;2023-05-29T00:11:05;98045.84;;;15.36;100.00
46722;BME280;32455;43.430;23.136;2023-05-29T00:13:50;98052.81;;;15.32;100.00
46722;BME280;32455;43.430;23.136;2023-05-29T00:16:36;98044.03;;;14.92;100.00
46722;BME280;32455;43.430;23.136;2023-05-29T00:19:22;98056.44;;;15.15;100.00
46722;BME280;32455;43.430;23.136;2023-05-29T00:22:09;98056.25;;;15.22;100.00
46722;BME280;32455;43.430;23.136;2023-05-29T00:24:55;98053.81;;;15.20;100.00
46722;BME280;32455;43.430;23.136;2023-05-29T00:27:41;98042.25;;;15.03;100.00
46722;BME280;32455;43.430;23.136;2023-05-29T00:30:26;98049.25;;;14.99;100.00
46722;BME280;32455;43.430;23.136;2023-05-29T00:33:12;98033.56;;;15.01;100.00
46722;BME280;32455;43.430;23.136;2023-05-29T00:35:56;98042.25;;;15.03;100.00
46722;BME280;32455;43.430;23.136;2023-05-29T00:38:41;98043.34;;;14.80;100.00
46722;BME280;32455;43.430;23.136;2023-05-29T00:41:26;98032.16;;;14.71;100.00
46722;BME280;32455;43.430;23.136;2023-05-29T00:44:11;98031.78;;;14.63;100.00
46722;BME280;32455;43.430;23.136;2023-05-29T00:46:56;98026.97;;;14.65;100.00
46722;BME280;32455;43.430;23.136;2023-05-29T00:49:44;98039.03;;;14.57;100.00
46722;BME280;32455;43.430;23.136;2023-05-29T00:52:29;98039.53;;;14.54;100.00
46722;BME280;32455;43.430;23.136;2023-05-29T00:55:15;98042.81;;;14.78;100.00
46722;BME280;32455;43.430;23.136;2023-05-29T00:58:01;98036.09;;;14.86;100.00
46722;BME280;32455;43.430;23.136;2023-05-29T01:00:47;98032.09;;;14.88;100.00
46722;BME280;32455;43.430;23.136;2023-05-29T01:03:32;98022.72;;;14.96;100.00
46722;BME280;32455;43.430;23.136;2023-05-29T01:06:18;98027.84;;;14.97;100.00
46722;BME280;32455;43.430;23.136;2023-05-29T01:09:04;98019.50;;;14.99;100.00
46722;BME280;32455;43.430;23.136;2023-05-29T01:15:11;98028.22;;;15.06;100.00
46722;BME280;32455;43.430;23.136;2023-05-29T01:21:33;98021.72;;;15.07;100.00
46722;BME280;32455;43.430;23.136;2023-05-29T01:24:37;98023.38;;;15.08;100.00
46722;BME280;32455;43.430;23.136;2023-05-29T01:27:24;98023.31;;;15.03;100.00
46722;BME280;32455;43.430;23.136;2023-05-29T01:30:11;98023.38;;;15.08;100.00
46722;BME280;32455;43.430;23.136;2023-05-29T01:32:57;98040.47;;;15.14;100.00
46722;BME280;32455;43.430;23.136;2023-05-29T01:35:43;98022.34;;;15.14;100.00
46722;BME280;32455;43.430;23.136;2023-05-29T01:38:28;98014.22;;;15.14;100.00
46722;BME280;32455;43.430;23.136;2023-05-29T01:41:14;98014.81;;;15.16;100.00
46722;BME280;32455;43.430;23.136;2023-05-29T01:44:02;98024.31;;;15.24;100.00
46722;BME280;32455;43.430;23.136;2023-05-29T01:46:48;98012.59;;;15.13;100.00
46722;BME280;32455;43.430;23.136;2023-05-29T01:49:34;98009.88;;;15.13;100.00
46722;BME280;32455;43.430;23.136;2023-05-29T01:52:22;98002.19;;;15.00;100.00
46722;BME280;32455;43.430;23.136;2023-05-29T01:55:07;97991.31;;;14.95;100.00
46722;BME280;32455;43.430;23.136;2023-05-29T01:57:53;98002.41;;;14.98;100.00
46722;BME280;32455;43.430;23.136;2023-05-29T02:00:40;97998.72;;;15.05;100.00
46722;BME280;32455;43.430;23.136;2023-05-29T02:03:27;98011.25;;;15.16;100.00
46722;BME280;32455;43.430;23.136;2023-05-29T02:06:14;98002.03;;;15.12;100.00
46722;BME280;32455;43.430;23.136;2023-05-29T02:09:00;98000.16;;;15.12;100.00
46722;BME280;32455;43.430;23.136;2023-05-29T02:11:45;98011.56;;;15.19;100.00
46722;BME280;32455;43.430;23.136;2023-05-29T02:14:30;97994.63;;;15.02;100.00
46722;BME280;32455;43.430;23.136;2023-05-29T02:17:16;98003.81;;;15.01;100.00
46722;BME280;32455;43.430;23.136;2023-05-29T02:20:04;97994.66;;;15.07;100.00
46722;BME280;32455;43.430;23.136;2023-05-29T02:22:50;97993.31;;;15.05;100.00
46722;BME280;32455;43.430;23.136;2023-05-29T02:25:36;98014.19;;;15.09;100.00
46722;BME280;32455;43.430;23.136;2023-05-29T02:28:21;98000.84;;;15.02;100.00
46722;BME280;32455;43.430;23.136;2023-05-29T02:31:07;97997.38;;;15.07;100.00
46722;BME280;32455;43.430;23.136;2023-05-29T02:33:52;98000.59;;;15.04;100.00
46722;BME280;32455;43.430;23.136;2023-05-29T02:36:37;97998.91;;;14.98;100.00
46722;BME280;32455;43.430;23.136;2023-05-29T02:39:23;97995.03;;;14.89;100.00
46722;BME280;32455;43.430;23.136;2023-05-29T02:42:08;97997.19;;;14.87;100.00
46722;BME280;32455;43.430;23.136;2023-05-29T02:44:53;98001.38;;;14.99;100.00
46722;BME280;32455;43.430;23.136;2023-05-29T02:47:39;97998.72;;;15.05;100.00
46722;BME280;32455;43.430;23.136;2023-05-29T02:50:24;98001.97;;;15.07;100.00
46722;BME280;32455;43.430;23.136;2023-05-29T02:53:10;98007.69;;;15.10;100.00
46722;BME280;32455;43.430;23.136;2023-05-29T02:55:55;98009.31;;;15.11;100.00
46722;BME280;32455;43.430;23.136;2023-05-29T02:58:41;98012.34;;;15.15;100.00
46722;BME280;32455;43.430;23.136;2023-05-29T03:01:27;98004.31;;;14.98;100.00
46722;BME280;32455;43.430;23.136;2023-05-29T03:04:12;98006.78;;;14.99;100.00
46722;BME280;32455;43.430;23.136;2023-05-29T03:06:57;98011.16;;;15.06;100.00
46722;BME280;32455;43.430;23.136;2023-05-29T03:09:42;98017.88;;;15.03;100.00
46722;BME280;32455;43.430;23.136;2023-05-29T03:12:26;98013.88;;;15.06;100.00
46722;BME280;32455;43.430;23.136;2023-05-29T03:15:13;98021.78;;;15.12;100.00
46722;BME280;32455;43.430;23.136;2023-05-29T03:17:59;98014.50;;;15.13;100.00
46722;BME280;32455;43.430;23.136;2023-05-29T03:20:44;98018.81;;;15.14;100.00
46722;BME280;32455;43.430;23.136;2023-05-29T03:23:30;98020.31;;;14.99;100.00
46722;BME280;32455;43.430;23.136;2023-05-29T03:26:14;98026.13;;;15.13;100.00
46722;BME280;32455;43.430;23.136;2023-05-29T03:29:00;98014.69;;;15.06;100.00
46722;BME280;32455;43.430;23.136;2023-05-29T03:31:45;98022.81;;;15.06;100.00
46722;BME280;32455;43.430;23.136;2023-05-29T03:34:30;98022.44;;;14.97;100.00
46722;BME280;32455;43.430;23.136;2023-05-29T03:37:17;98038.59;;;15.14;100.00
46722;BME280;32455;43.430;23.136;2023-05-29T03:40:01;98032.63;;;15.12;100.00
46722;BME280;32455;43.430;23.136;2023-05-29T03:42:47;98039.75;;;15.23;100.00
46722;BME280;32455;43.430;23.136;2023-05-29T03:45:32;98044.13;;;15.02;100.00
46722;BME280;32455;43.430;23.136;2023-05-29T03:48:18;98038.94;;;14.96;100.00
46722;BME280;32455;43.430;23.136;2023-05-29T03:51:04;98036.66;;;15.10;100.00
46722;BME280;32455;43.430;23.136;2023-05-29T03:53:50;98041.88;;;15.16;100.00
46722;BME280;32455;43.430;23.136;2023-05-29T03:56:35;98033.97;;;15.15;100.00
46722;BME280;32455;43.430;23.136;2023-05-29T03:59:21;98038.09;;;15.17;100.00
46722;BME280;32455;43.430;23.136;2023-05-29T04:02:06;98040.28;;;15.20;100.00
46722;BME280;32455;43.430;23.136;2023-05-29T04:04:52;98038.44;;;15.26;100.00
46722;BME280;32455;43.430;23.136;2023-05-29T04:07:38;98049.69;;;15.13;100.00
46722;BME280;32455;43.430;23.136;2023-05-29T04:10:23;98029.25;;;15.00;100.00
46722;BME280;32455;43.430;23.136;2023-05-29T04:13:09;98060.56;;;15.18;100.00
46722;BME280;32455;43.430;23.136;2023-05-29T04:15:55;98063.94;;;15.30;100.00
46722;BME280;32455;43.430;23.136;2023-05-29T04:18:40;98063.13;;;15.30;100.00
46722;BME280;32455;43.430;23.136;2023-05-29T04:21:25;98066.94;;;15.34;100.00
46722;BME280;32455;43.430;23.136;2023-05-29T04:24:11;98066.72;;;15.40;100.00
46722;BME280;32455;43.430;23.136;2023-05-29T04:26:57;98079.44;;;15.40;100.00
46722;BME280;32455;43.430;23.136;2023-05-29T04:29:45;98076.66;;;15.30;100.00
46722;BME280;32455;43.430;23.136;2023-05-29T04:32:31;98073.06;;;15.24;100.00
46722;BME280;32455;43.430;23.136;2023-05-29T04:35:16;98069.38;;;15.08;100.00
46722;BME280;32455;43.430;23.136;2023-05-29T04:38:02;98077.66;;;15.23;100.00
46722;BME280;32455;43.430;23.136;2023-05-29T04:40:51;98073.13;;;15.29;100.00
46722;BME280;32455;43.430;23.136;2023-05-29T04:43:36;98087.53;;;15.35;100.00
46722;BME280;32455;43.430;23.136;2023-05-29T04:46:23;98086.53;;;15.46;100.00
46722;BME280;32455;43.430;23.136;2023-05-29T04:49:09;98085.25;;;15.53;100.00
46722;BME280;32455;43.430;23.136;2023-05-29T04:51:54;98082.03;;;15.57;100.00
46722;BME280;32455;43.430;23.136;2023-05-29T04:54:39;98087.19;;;15.58;100.00
46722;BME280;32455;43.430;23.136;2023-05-29T04:57:24;98088.28;;;15.57;100.00
46722;BME280;32455;43.430;23.136;2023-05-29T05:00:10;98085.88;;;15.61;100.00
46722;BME280;32455;43.430;23.136;2023-05-29T05:03:01;98085.59;;;15.62;100.00
46722;BME280;32455;43.430;23.136;2023-05-29T05:05:47;98072.53;;;15.54;100.00
46722;BME280;32455;43.430;23.136;2023-05-29T05:08:33;98086.75;;;15.66;100.00
46722;BME280;32455;43.430;23.136;2023-05-29T05:11:21;98078.13;;;15.69;100.00
46722;BME280;32455;43.430;23.136;2023-05-29T05:14:06;98095.38;;;15.63;100.00
46722;BME280;32455;43.430;23.136;2023-05-29T05:16:51;98103.34;;;15.75;100.00
46722;BME280;32455;43.430;23.136;2023-05-29T05:19:37;98104.28;;;15.86;100.00
46722;BME280;32455;43.430;23.136;2023-05-29T05:22:23;98099.31;;;15.77;100.00
46722;BME280;32455;43.430;23.136;2023-05-29T05:25:09;98110.78;;;15.85;100.00
46722;BME280;32455;43.430;23.136;2023-05-29T05:27:54;98107.53;;;15.88;100.00
46722;BME280;32455;43.430;23.136;2023-05-29T05:30:40;98119.72;;;15.85;100.00
46722;BME280;32455;43.430;23.136;2023-05-29T05:33:26;98116.91;;;15.75;100.00
46722;BME280;32455;43.430;23.136;2023-05-29T05:36:11;98124.22;;;15.74;100.00
46722;BME280;32455;43.430;23.136;2023-05-29T05:38:57;98127.13;;;15.95;100.00
46722;BME280;32455;43.430;23.136;2023-05-29T05:41:42;98132.81;;;15.93;100.00
46722;BME280;32455;43.430;23.136;2023-05-29T05:44:27;98125.69;;;15.87;100.00
46722;BME280;32455;43.430;23.136;2023-05-29T05:47:12;98125.91;;;15.81;100.00
46722;BME280;32455;43.430;23.136;2023-05-29T05:49:58;98117.94;;;15.69;100.00
46722;BME280;32455;43.430;23.136;2023-05-29T05:52:43;98121.00;;;15.77;100.00
46722;BME280;32455;43.430;23.136;2023-05-29T05:55:28;98124.09;;;15.91;100.00
46722;BME280;32455;43.430;23.136;2023-05-29T05:58:14;98117.97;;;15.74;100.00
46722;BME280;32455;43.430;23.136;2023-05-29T06:00:59;98128.31;;;15.77;100.00
46722;BME280;32455;43.430;23.136;2023-05-29T06:03:46;98125.19;;;15.90;100.00
46722;BME280;32455;43.430;23.136;2023-05-29T06:06:31;98126.50;;;15.88;100.00
46722;BME280;32455;43.430;23.136;2023-05-29T06:09:16;98141.97;;;15.92;100.00
46722;BME280;32455;43.430;23.136;2023-05-29T06:12:02;98133.00;;;15.87;100.00
46722;BME280;32455;43.430;23.136;2023-05-29T06:14:48;98129.78;;;15.90;100.00
46722;BME280;32455;43.430;23.136;2023-05-29T06:17:33;98137.13;;;15.94;100.00
46722;BME280;32455;43.430;23.136;2023-05-29T06:20:19;98132.03;;;15.98;100.00
46722;BME280;32455;43.430;23.136;2023-05-29T06:23:05;98133.38;;;16.00;100.00
46722;BME280;32455;43.430;23.136;2023-05-29T06:25:50;98130.38;;;15.97;100.00
46722;BME280;32455;43.430;23.136;2023-05-29T06:28:36;98136.84;;;15.91;100.00
46722;BME280;32455;43.430;23.136;2023-05-29T06:31:21;98132.97;;;15.82;100.00
46722;BME280;32455;43.430;23.136;2023-05-29T06:34:07;98140.63;;;15.90;100.00
46722;BME280;32455;43.430;23.136;2023-05-29T06:36:51;98147.94;;;15.89;100.00
46722;BME280;32455;43.430;23.136;2023-05-29T06:39:37;98155.59;;;15.97;100.00
46722;BME280;32455;43.430;23.136;2023-05-29T06:42:22;98141.22;;;15.97;100.00
46722;BME280;32455;43.430;23.136;2023-05-29T06:45:06;98153.13;;;15.96;100.00
46722;BME280;32455;43.430;23.136;2023-05-29T06:47:52;98142.53;;;15.89;100.00
46722;BME280;32455;43.430;23.136;2023-05-29T06:50:37;98146.84;;;15.90;100.00
46722;BME280;32455;43.430;23.136;2023-05-29T06:53:23;98133.00;;;15.87;100.00
46722;BME280;32455;43.430;23.136;2023-05-29T06:56:08;98150.44;;;16.01;100.00
46722;BME280;32455;43.430;23.136;2023-05-29T06:58:53;98141.28;;;16.02;100.00
46722;BME280;32455;43.430;23.136;2023-05-29T07:01:39;98140.44;;;16.01;100.00
46722;BME280;32455;43.430;23.136;2023-05-29T07:04:24;98145.38;;;16.10;100.00
46722;BME280;32455;43.430;23.136;2023-05-29T07:07:10;98150.03;;;16.14;100.00
46722;BME280;32455;43.430;23.136;2023-05-29T07:09:55;98145.13;;;16.11;100.00
46722;BME280;32455;43.430;23.136;2023-05-29T07:12:41;98152.25;;;16.22;100.00
46722;BME280;32455;43.430;23.136;2023-05-29T07:15:26;98141.38;;;16.17;100.00
46722;BME280;32455;43.430;23.136;2023-05-29T07:18:12;98154.63;;;16.14;100.00
46722;BME280;32455;43.430;23.136;2023-05-29T07:21:00;98161.47;;;16.21;100.00
46722;BME280;32455;43.430;23.136;2023-05-29T07:23:45;98138.28;;;16.03;100.00
46722;BME280;32455;43.430;23.136;2023-05-29T07:26:31;98159.81;;;16.15;100.00
46722;BME280;32455;43.430;23.136;2023-05-29T07:29:16;98148.97;;;16.15;100.00
46722;BME280;32455;43.430;23.136;2023-05-29T07:32:03;98147.31;;;16.14;100.00
46722;BME280;32455;43.430;23.136;2023-05-29T07:34:48;98155.19;;;16.16;100.00
46722;BME280;32455;43.430;23.136;2023-05-29T07:37:37;98160.88;;;16.14;100.00
46722;BME280;32455;43.430;23.136;2023-05-29T07:40:22;98164.97;;;16.17;100.00
46722;BME280;32455;43.430;23.136;2023-05-29T07:43:08;98157.66;;;16.17;100.00
46722;BME280;32455;43.430;23.136;2023-05-29T07:45:53;98171.00;;;16.24;100.00
46722;BME280;32455;43.430;23.136;2023-05-29T07:48:38;98167.34;;;16.08;100.00
46722;BME280;32455;43.430;23.136;2023-05-29T07:51:23;98167.84;;;16.05;100.00
46722;BME280;32455;43.430;23.136;2023-05-29T07:54:09;98180.34;;;16.06;100.00
46722;BME280;32455;43.430;23.136;2023-05-29T07:56:54;98177.34;;;16.08;100.00
46722;BME280;32455;43.430;23.136;2023-05-29T07:59:42;98180.97;;;16.18;100.00
46722;BME280;32455;43.430;23.136;2023-05-29T08:02:28;98172.88;;;16.23;100.00
46722;BME280;32455;43.430;23.136;2023-05-29T08:05:13;98172.75;;;16.40;100.00
46722;BME280;32455;43.430;23.136;2023-05-29T08:07:58;98174.00;;;16.70;100.00
46722;BME280;32455;43.430;23.136;2023-05-29T08:10:44;98177.47;;;16.97;100.00
46722;BME280;32455;43.430;23.136;2023-05-29T08:13:30;98169.22;;;16.82;100.00
46722;BME280;32455;43.430;23.136;2023-05-29T08:16:16;98155.75;;;16.55;100.00
46722;BME280;32455;43.430;23.136;2023-05-29T08:19:02;98167.56;;;16.76;100.00
46722;BME280;32455;43.430;23.136;2023-05-29T08:21:48;98151.25;;;17.28;100.00
46722;BME280;32455;43.430;23.136;2023-05-29T08:24:33;98150.44;;;17.38;100.00
46722;BME280;32455;43.430;23.136;2023-05-29T08:27:18;98164.63;;;17.56;100.00
46722;BME280;32455;43.430;23.136;2023-05-29T08:30:04;98138.03;;;17.68;100.00
46722;BME280;32455;43.430;23.136;2023-05-29T08:32:49;98145.16;;;17.74;100.00
46722;BME280;32455;43.430;23.136;2023-05-29T08:35:35;98146.78;;;17.80;100.00
46722;BME280;32455;43.430;23.136;2023-05-29T08:38:20;98155.75;;;17.81;100.00
46722;BME280;32455;43.430;23.136;2023-05-29T08:41:07;98150.59;;;17.89;100.00
46722;BME280;32455;43.430;23.136;2023-05-29T08:43:53;98163.09;;;17.85;100.00
46722;BME280;32455;43.430;23.136;2023-05-29T08:46:39;98150.31;;;17.75;100.00
46722;BME280;32455;43.430;23.136;2023-05-29T08:49:29;98158.75;;;17.79;100.00
46722;BME280;32455;43.430;23.136;2023-05-29T08:52:23;98157.97;;;18.04;100.00
46722;BME280;32455;43.430;23.136;2023-05-29T08:55:11;98144.91;;;18.01;100.00
46722;BME280;32455;43.430;23.136;2023-05-29T08:57:56;98151.69;;;18.09;100.00
46722;BME280;32455;43.430;23.136;2023-05-29T09:00:43;98134.03;;;17.96;100.00
46722;BME280;32455;43.430;23.136;2023-05-29T09:03:27;98150.59;;;18.15;100.00
46722;BME280;32455;43.430;23.136;2023-05-29T09:06:11;98152.53;;;18.24;100.00
46722;BME280;32455;43.430;23.136;2023-05-29T09:08:57;98151.44;;;18.20;100.00
46722;BME280;32455;43.430;23.136;2023-05-29T09:11:44;98154.41;;;18.24;100.00
46722;BME280;32455;43.430;23.136;2023-05-29T09:14:41;98142.16;;;18.11;100.00
46722;BME280;32455;43.430;23.136;2023-05-29T09:17:35;98144.34;;;18.30;100.00
46722;BME280;32455;43.430;23.136;2023-05-29T09:20:21;98144.31;;;18.55;100.00
46722;BME280;32455;43.430;23.136;2023-05-29T09:23:10;98145.91;;;18.66;100.00
46722;BME280;32455;43.430;23.136;2023-05-29T09:25:55;98143.19;;;18.66;100.00
46722;BME280;32455;43.430;23.136;2023-05-29T09:28:41;98132.88;;;18.73;100.00
46722;BME280;32455;43.430;23.136;2023-05-29T09:31:26;98127.97;;;18.70;100.00
46722;BME280;32455;43.430;23.136;2023-05-29T09:34:11;98130.91;;;18.94;100.00
46722;BME280;32455;43.430;23.136;2023-05-29T09:37:04;98140.75;;;18.85;100.00
46722;BME280;32455;43.430;23.136;2023-05-29T09:39:53;98132.06;;;18.68;100.00
46722;BME280;32455;43.430;23.136;2023-05-29T09:42:39;98135.06;;;18.56;100.00
46722;BME280;32455;43.430;23.136;2023-05-29T09:45:25;98124.72;;;18.73;100.00
46722;BME280;32455;43.430;23.136;2023-05-29T09:48:16;98126.44;;;19.14;100.00
46722;BME280;32455;43.430;23.136;2023-05-29T09:51:02;98127.53;;;19.18;100.00
46722;BME280;32455;43.430;23.136;2023-05-29T09:53:49;98119.19;;;18.99;100.00
46722;BME280;32455;43.430;23.136;2023-05-29T09:56:35;98125.97;;;18.96;100.00
46722;BME280;32455;43.430;23.136;2023-05-29T09:59:23;98134.19;;;18.86;100.00
46722;BME280;32455;43.430;23.136;2023-05-29T10:02:09;98122.22;;;18.82;100.00
46722;BME280;32455;43.430;23.136;2023-05-29T10:04:57;98128.94;;;19.10;100.00
46722;BME280;32455;43.430;23.136;2023-05-29T10:07:46;98120.25;;;19.52;100.00
46722;BME280;32455;43.430;23.136;2023-05-29T10:10:33;98119.09;;;19.69;100.00
46722;BME280;32455;43.430;23.136;2023-05-29T10:13:22;98118.59;;;19.67;100.00
46722;BME280;32455;43.430;23.136;2023-05-29T10:16:11;98133.22;;;19.76;100.00
46722;BME280;32455;43.430;23.136;2023-05-29T10:19:00;98116.53;;;19.88;100.00
46722;BME280;32455;43.430;23.136;2023-05-29T10:21:46;98121.47;;;19.81;100.00
46722;BME280;32455;43.430;23.136;2023-05-29T10:24:33;98115.00;;;19.71;100.00
46722;BME280;32455;43.430;23.136;2023-05-29T10:27:22;98130.16;;;19.88;100.00
46722;BME280;32455;43.430;23.136;2023-05-29T10:30:34;98137.13;;;19.65;100.00
46722;BME280;32455;43.430;23.136;2023-05-29T10:36:13;98139.38;;;18.62;100.00
46722;BME280;32455;43.430;23.136;2023-05-29T10:38:59;98136.44;;;18.43;100.00
46722;BME280;32455;43.430;23.136;2023-05-29T10:41:44;98133.47;;;18.19;100.00
46722;BME280;32455;43.430;23.136;2023-05-29T10:47:24;98130.22;;;18.02;100.00
46722;BME280;32455;43.430;23.136;2023-05-29T10:50:09;98125.88;;;18.16;100.00
46722;BME280;32455;43.430;23.136;2023-05-29T10:52:55;98114.72;;;18.33;100.00
46722;BME280;32455;43.430;23.136;2023-05-29T10:55:41;98126.09;;;18.45;100.00
46722;BME280;32455;43.430;23.136;2023-05-29T10:58:27;98115.53;;;18.29;100.00
46722;BME280;32455;43.430;23.136;2023-05-29T11:01:12;98106.56;;;17.97;100.00
46722;BME280;32455;43.430;23.136;2023-05-29T11:07:34;98124.19;;;18.56;100.00
46722;BME280;32455;43.430;23.136;2023-05-29T11:10:44;98116.25;;;18.75;100.00
46722;BME280;32455;43.430;23.136;2023-05-29T11:13:35;98115.72;;;18.63;100.00
46722;BME280;32455;43.430;23.136;2023-05-29T11:19:10;98085.72;;;18.93;100.00
46722;BME280;32455;43.430;23.136;2023-05-29T11:22:09;98096.16;;;19.25;100.00
46722;BME280;32455;43.430;23.136;2023-05-29T11:25:00;98089.81;;;18.86;100.00
46722;BME280;32455;43.430;23.136;2023-05-29T11:27:46;98079.78;;;19.31;100.00
46722;BME280;32455;43.430;23.136;2023-05-29T11:30:44;98080.06;;;19.29;100.00
46722;BME280;32455;43.430;23.136;2023-05-29T11:33:30;98081.91;;;19.39;100.00
46722;BME280;32455;43.430;23.136;2023-05-29T11:36:21;98076.13;;;19.50;100.00
46722;BME280;32455;43.430;23.136;2023-05-29T11:39:08;98078.50;;;19.67;100.00
46722;BME280;32455;43.430;23.136;2023-05-29T11:41:54;98080.47;;;19.51;100.00
46722;BME280;32455;43.430;23.136;2023-05-29T11:44:40;98064.25;;;19.31;100.00
46722;BME280;32455;43.430;23.136;2023-05-29T11:47:25;98062.81;;;19.49;100.00
46722;BME280;32455;43.430;23.136;2023-05-29T11:50:23;98073.16;;;19.47;100.00
46722;BME280;32455;43.430;23.136;2023-05-29T11:53:09;98072.34;;;19.46;100.00
46722;BME280;32455;43.430;23.136;2023-05-29T11:56:07;98055.47;;;19.44;100.00
46722;BME280;32455;43.430;23.136;2023-05-29T11:58:54;98070.16;;;19.43;100.00
46722;BME280;32455;43.430;23.136;2023-05-29T12:01:44;98062.75;;;19.15;100.00
46722;BME280;32455;43.430;23.136;2023-05-29T12:04:30;98051.56;;;19.16;100.00
46722;BME280;32455;43.430;23.136;2023-05-29T12:07:19;98063.28;;;19.12;100.00
46722;BME280;32455;43.430;23.136;2023-05-29T12:10:11;98059.22;;;19.09;100.00
46722;BME280;32455;43.430;23.136;2023-05-29T12:12:59;98053.31;;;18.92;100.00
46722;BME280;32455;43.430;23.136;2023-05-29T12:15:49;98056.84;;;18.97;100.00
46722;BME280;32455;43.430;23.136;2023-05-29T12:18:38;98041.09;;;18.89;100.00
46722;BME280;32455;43.430;23.136;2023-05-29T12:21:23;98053.88;;;18.84;100.00
46722;BME280;32455;43.430;23.136;2023-05-29T12:24:11;98046.00;;;18.82;100.00
46722;BME280;32455;43.430;23.136;2023-05-29T12:26:57;98053.06;;;18.83;100.00
46722;BME280;32455;43.430;23.136;2023-05-29T12:29:44;98036.47;;;18.80;100.00
46722;BME280;32455;43.430;23.136;2023-05-29T12:32:37;98035.94;;;18.83;100.00
46722;BME280;32455;43.430;23.136;2023-05-29T12:35:23;98041.09;;;18.84;100.00
46722;BME280;32455;43.430;23.136;2023-05-29T12:38:09;98049.53;;;18.83;100.00
46722;BME280;32455;43.430;23.136;2023-05-29T12:40:54;98042.16;;;18.88;100.00
46722;BME280;32455;43.430;23.136;2023-05-29T12:43:39;98034.75;;;18.99;100.00
46722;BME280;32455;43.430;23.136;2023-05-29T12:46:26;98021.28;;;19.18;100.00
46722;BME280;32455;43.430;23.136;2023-05-29T12:49:16;98023.16;;;19.22;100.00
46722;BME280;32455;43.430;23.136;2023-05-29T12:52:08;98034.34;;;19.60;100.00
46722;BME280;32455;43.430;23.136;2023-05-29T12:54:55;98015.44;;;19.79;100.00
46722;BME280;32455;43.430;23.136;2023-05-29T12:57:40;98034.19;;;20.15;100.00
46722;BME280;32455;43.430;23.136;2023-05-29T13:00:26;98037.34;;;20.27;100.00
46722;BME280;32455;43.430;23.136;2023-05-29T13:03:12;98046.16;;;20.48;100.00
46722;BME280;32455;43.430;23.136;2023-05-29T13:05:57;98045.03;;;20.73;100.00
46722;BME280;32455;43.430;23.136;2023-05-29T13:08:42;98031.66;;;20.71;100.00
46722;BME280;32455;43.430;23.136;2023-05-29T13:11:27;98028.97;;;20.42;100.00
46722;BME280;32455;43.430;23.136;2023-05-29T13:14:12;98018.69;;;20.10;100.00
46722;BME280;32455;43.430;23.136;2023-05-29T13:16:58;97991.84;;;19.93;100.00
46722;BME280;32455;43.430;23.136;2023-05-29T13:19:43;98013.34;;;19.95;100.00
46722;BME280;32455;43.430;23.136;2023-05-29T13:22:29;98018.72;;;20.05;100.00
46722;BME280;32455;43.430;23.136;2023-05-29T13:25:17;98016.00;;;20.05;100.00
46722;BME280;32455;43.430;23.136;2023-05-29T13:28:04;98031.56;;;20.58;100.00
46722;BME280;32455;43.430;23.136;2023-05-29T13:30:50;98028.41;;;20.45;100.00
46722;BME280;32455;43.430;23.136;2023-05-29T13:33:36;98023.63;;;20.32;100.00
46722;BME280;32455;43.430;23.136;2023-05-29T13:36:21;98035.53;;;20.17;100.00
46722;BME280;32455;43.430;23.136;2023-05-29T13:39:07;98045.53;;;19.98;100.00
46722;BME280;32455;43.430;23.136;2023-05-29T13:41:52;98027.00;;;19.61;100.00
46722;BME280;32455;43.430;23.136;2023-05-29T13:44:38;98028.09;;;19.60;100.00
46722;BME280;32455;43.430;23.136;2023-05-29T13:47:24;98018.84;;;19.56;100.00
46722;BME280;32455;43.430;23.136;2023-05-29T13:50:11;98018.28;;;20.22;100.00
46722;BME280;32455;43.430;23.136;2023-05-29T13:52:56;98004.81;;;20.31;100.00
46722;BME280;32455;43.430;23.136;2023-05-29T13:55:41;98017.31;;;20.13;100.00
46722;BME280;32455;43.430;23.136;2023-05-29T13:58:27;97994.28;;;20.48;100.00
46722;BME280;32455;43.430;23.136;2023-05-29T14:01:12;98003.19;;;20.78;100.00
46722;BME280;32455;43.430;23.136;2023-05-29T14:03:59;98000.25;;;20.74;100.00
46722;BME280;32455;43.430;23.136;2023-05-29T14:06:45;97997.28;;;20.70;100.00
46722;BME280;32455;43.430;23.136;2023-05-29T14:09:31;97995.81;;;20.97;100.00
46722;BME280;32455;43.430;23.136;2023-05-29T14:12:16;97989.31;;;21.31;100.00
46722;BME280;32455;43.430;23.136;2023-05-29T14:15:02;97989.84;;;21.52;100.00
46722;BME280;32455;43.430;23.136;2023-05-29T14:17:47;97984.53;;;21.74;100.00
46722;BME280;32455;43.430;23.136;2023-05-29T14:20:33;97997.94;;;21.75;100.00
46722;BME280;32455;43.430;23.136;2023-05-29T14:23:19;97994.19;;;21.71;100.00
46722;BME280;32455;43.430;23.136;2023-05-29T14:26:04;97990.41;;;21.67;100.00
46722;BME280;32455;43.430;23.136;2023-05-29T14:28:49;97981.13;;;21.82;100.00
46722;BME280;32455;43.430;23.136;2023-05-29T14:31:34;97976.47;;;21.96;100.00
46722;BME280;32455;43.430;23.136;2023-05-29T14:34:20;97987.72;;;21.81;100.00
46722;BME280;32455;43.430;23.136;2023-05-29T14:37:06;97987.56;;;21.40;100.00